Terminal Aerodrome Forecast
Issued by NWS Pittsburgh, PA

Current Version | Previous Version | Graphics & Text | Print | Product List | Glossary On
Versions: 1 2 3 4 5 6 7 8 9 10 11 12 13 14 15 16 17 18 19 20 21 22 23 24 25 26 27 28 29 30 31 32
804
FTUS41 KPBZ 241455 AAA
TAFPIT
TAF AMD
KPIT 241455Z 2415/2518 24006KT P6SM SCT007 BKN015
     FM241600 26006KT P6SM BKN025
     FM241800 27007KT P6SM VCSH BKN035
     FM242000 28010KT P6SM BKN090
     FM250200 31007KT P6SM SCT050=

USA.gov is the U.S. government's official web portal to all federal, state and local government web resources and services.